Observation data for Muleshoe on 12/09/2018      Previous  Date       Current Mesonet Observations  Soil Data  Daily Summary Page  Observations in Plain Language
KMUS 090600Z 23002KT M06/M06 A3029 RMK A01 T10581062  RH  097%=      5-min Rain = 0
KMUS 090605Z 23002KT M06/M06 A3029 RMK A01 T10571060  RH  098%=      5-min Rain = 0
KMUS 090610Z 23001KT M05/M06 A3029 RMK A01 T10541056  RH  098%=      5-min Rain = 0
KMUS 090615Z 23001KT M05/M06 A3029 RMK A01 T10521055  RH  098%=      5-min Rain = 0
KMUS 090620Z 25001KT M05/M05 A3029 RMK A01 T10511054  RH  098%=      5-min Rain = 0
KMUS 090625Z 27002KT M05/M06 A3029 RMK A01 T10531057  RH  097%=      5-min Rain = 0
KMUS 090630Z 28002KT M06/M06 A3029 RMK A01 T10571061  RH  097%=      5-min Rain = 0
KMUS 090635Z 28002KT M06/M06 A3028 RMK A01 T10591063  RH  097%=      5-min Rain = 0
KMUS 090640Z 30002KT M06/M06 A3028 RMK A01 T10591062  RH  098%=      5-min Rain = 0
KMUS 090645Z 32002KT M06/M06 A3028 RMK A01 T10571060  RH  098%=      5-min Rain = 0
KMUS 090650Z 32002KT M06/M06 A3028 RMK A01 T10581061  RH  098%=      5-min Rain = 0
KMUS 090655Z 31002KT M06/M06 A3028 RMK A01 T10591062  RH  098%=      5-min Rain = 0
KMUS 090700Z 31001KT M06/M06 A3028 RMK A01 T10601064  RH  097%=      5-min Rain = 0
KMUS 090705Z 31001KT M06/M07 A3028 RMK A01 T10611065  RH  098%=      5-min Rain = 0
KMUS 090710Z 30002KT M06/M06 A3028 RMK A01 T10611064  RH  098%=      5-min Rain = 0
KMUS 090715Z 30002KT M06/M07 A3028 RMK A01 T10621065  RH  098%=      5-min Rain = 0
KMUS 090720Z 29002KT M06/M07 A3028 RMK A01 T10631066  RH  098%=      5-min Rain = 0
KMUS 090725Z 29002KT M06/M07 A3028 RMK A01 T10641067  RH  097%=      5-min Rain = 0
KMUS 090730Z 28003KT M06/M07 A3028 RMK A01 T10631066  RH  098%=      5-min Rain = 0
KMUS 090735Z 28003KT M06/M07 A3028 RMK A01 T10631066  RH  098%=      5-min Rain = 0
KMUS 090740Z 29002KT M06/M07 A3028 RMK A01 T10621066  RH  098%=      5-min Rain = 0
KMUS 090745Z 30002KT M06/M07 A3028 RMK A01 T10621065  RH  098%=      5-min Rain = 0
KMUS 090750Z 27002KT M06/M07 A3028 RMK A01 T10621065  RH  098%=      5-min Rain = 0
KMUS 090755Z 27003KT M06/M07 A3028 RMK A01 T10641068  RH  097%=      5-min Rain = 0
KMUS 090800Z 27003KT M06/M07 A3028 RMK A01 T10631066  RH  098%=      5-min Rain = 0
KMUS 090805Z 27004KT M06/M07 A3028 RMK A01 T10631066  RH  098%=      5-min Rain = 0
KMUS 090810Z 26004KT M06/M07 A3028 RMK A01 T10631066  RH  098%=      5-min Rain = 0
KMUS 090815Z 26003KT M06/M07 A3028 RMK A01 T10631067  RH  097%=      5-min Rain = 0
KMUS 090820Z 26003KT M06/M07 A3028 RMK A01 T10641067  RH  098%=      5-min Rain = 0
KMUS 090825Z 27003KT M06/M07 A3028 RMK A01 T10631067  RH  098%=      5-min Rain = 0
KMUS 090830Z 28003KT M06/M07 A3028 RMK A01 T10641067  RH  098%=      5-min Rain = 0
KMUS 090835Z 28002KT M06/M07 A3028 RMK A01 T10641068  RH  098%=      5-min Rain = 0
KMUS 090840Z 29002KT M06/M07 A3028 RMK A01 T10631066  RH  098%=      5-min Rain = 0
KMUS 090845Z 29001KT M06/M07 A3028 RMK A01 T10621065  RH  098%=      5-min Rain = 0
KMUS 090850Z 30001KT M06/M07 A3028 RMK A01 T10631066  RH  098%=      5-min Rain = 0
KMUS 090855Z 30002KT M06/M07 A3028 RMK A01 T10641068  RH  097%=      5-min Rain = 0
KMUS 090900Z 30003KT M07/M07 A3028 RMK A01 T10671071  RH  097%=      5-min Rain = 0
KMUS 090905Z 31003KT M07/M07 A3028 RMK A01 T10671070  RH  098%=      5-min Rain = 0
KMUS 090910Z 32003KT M07/M07 A3028 RMK A01 T10661069  RH  098%=      5-min Rain = 0
KMUS 090915Z 31002KT M07/M07 A3028 RMK A01 T10661069  RH  098%=      5-min Rain = 0
KMUS 090920Z 31002KT M07/M07 A3028 RMK A01 T10671071  RH  097%=      5-min Rain = 0
KMUS 090925Z 32002KT M07/M07 A3028 RMK A01 T10681071  RH  098%=      5-min Rain = 0
KMUS 090930Z 32002KT M07/M07 A3028 RMK A01 T10661069  RH  098%=      5-min Rain = 0
KMUS 090935Z 32002KT M06/M07 A3029 RMK A01 T10641067  RH  098%=      5-min Rain = 0
KMUS 090940Z 31002KT M07/M07 A3029 RMK A01 T10661069  RH  097%=      5-min Rain = 0
KMUS 090945Z 30002KT M07/M07 A3029 RMK A01 T10681071  RH  098%=      5-min Rain = 0
KMUS 090950Z 29003KT M07/M07 A3029 RMK A01 T10681072  RH  098%=      5-min Rain = 0
KMUS 090955Z 30004KT M07/M08 A3029 RMK A01 T10711075  RH  097%=      5-min Rain = 0
KMUS 091000Z 30004KT M07/M08 A3029 RMK A01 T10731076  RH  097%=      5-min Rain = 0
KMUS 091005Z 31005KT M07/M07 A3029 RMK A01 T10691071  RH  099%=      5-min Rain = 0
KMUS 091010Z 31004KT M07/M07 A3029 RMK A01 T10651067  RH  098%=      5-min Rain = 0
KMUS 091015Z 29002KT M07/M07 A3029 RMK A01 T10661070  RH  097%=      5-min Rain = 0
KMUS 091020Z 28002KT M07/M07 A3028 RMK A01 T10691072  RH  097%=      5-min Rain = 0
KMUS 091025Z 28002KT M07/M07 A3028 RMK A01 T10681071  RH  098%=      5-min Rain = 0
KMUS 091030Z 29003KT M07/M07 A3028 RMK A01 T10671070  RH  098%=      5-min Rain = 0
KMUS 091035Z 29003KT M07/M07 A3028 RMK A01 T10691072  RH  097%=      5-min Rain = 0
KMUS 091040Z 29004KT M07/M07 A3028 RMK A01 T10701073  RH  097%=      5-min Rain = 0
KMUS 091045Z 29004KT M07/M07 A3028 RMK A01 T10711074  RH  097%=      5-min Rain = 0
KMUS 091050Z 29004KT M07/M07 A3028 RMK A01 T10711074  RH  097%=      5-min Rain = 0
KMUS 091055Z 30004KT M07/M07 A3028 RMK A01 T10701074  RH  098%=      5-min Rain = 0
KMUS 091100Z 29004KT M07/M07 A3029 RMK A01 T10691072  RH  098%=      5-min Rain = 0
KMUS 091105Z 29003KT M07/M07 A3029 RMK A01 T10691072  RH  098%=      5-min Rain = 0
KMUS 091110Z 28003KT M07/M07 A3029 RMK A01 T10691073  RH  097%=      5-min Rain = 0
KMUS 091115Z 28004KT M07/M07 A3029 RMK A01 T10691073  RH  097%=      5-min Rain = 0
KMUS 091120Z 27004KT M07/M07 A3029 RMK A01 T10691072  RH  097%=      5-min Rain = 0
KMUS 091125Z 26004KT M07/M07 A3029 RMK A01 T10691073  RH  097%=      5-min Rain = 0
KMUS 091130Z 24004KT M07/M07 A3029 RMK A01 T10691073  RH  097%=      5-min Rain = 0
KMUS 091135Z 25003KT M07/M07 A3028 RMK A01 T10701074  RH  097%=      5-min Rain = 0
KMUS 091140Z 25004KT M07/M07 A3029 RMK A01 T10701074  RH  097%=      5-min Rain = 0
KMUS 091145Z 25004KT M07/M07 A3029 RMK A01 T10701074  RH  097%=      5-min Rain = 0
KMUS 091150Z 25005KT M07/M07 A3029 RMK A01 T10701074  RH  097%=      5-min Rain = 0
KMUS 091155Z 25004KT M07/M07 A3029 RMK A01 T10691073  RH  097%=      5-min Rain = 0
KMUS 091200Z 25005KT M07/M07 A3029 RMK A01 T10681071  RH  097%=      5-min Rain = 0
KMUS 091205Z 26005KT M07/M07 A3029 RMK A01 T10671071  RH  097%=      5-min Rain = 0
KMUS 091210Z 26005KT M07/M07 A3029 RMK A01 T10671070  RH  097%=      5-min Rain = 0
KMUS 091215Z 26004KT M07/M07 A3029 RMK A01 T10651069  RH  097%=      5-min Rain = 0
KMUS 091220Z 26004KT M06/M07 A3029 RMK A01 T10641068  RH  097%=      5-min Rain = 0
KMUS 091225Z 27003KT M06/M07 A303 RMK A01 T10631067  RH  097%=      5-min Rain = 0
KMUS 091230Z 27004KT M06/M07 A303 RMK A01 T10641068  RH  097%=      5-min Rain = 0
KMUS 091235Z 27005KT M06/M07 A303 RMK A01 T10641068  RH  097%=      5-min Rain = 0
KMUS 091240Z 27004KT M06/M07 A303 RMK A01 T10641068  RH  097%=      5-min Rain = 0
KMUS 091245Z 27005KT M06/M07 A303 RMK A01 T10641069  RH  097%=      5-min Rain = 0
KMUS 091250Z 28005KT M06/M07 A3031 RMK A01 T10641068  RH  097%=      5-min Rain = 0
KMUS 091255Z 27005KT M06/M07 A3031 RMK A01 T10641068  RH  097%=      5-min Rain = 0
KMUS 091300Z 26005KT M06/M07 A3031 RMK A01 T10641068  RH  097%=      5-min Rain = 0
KMUS 091305Z 26004KT M06/M07 A3031 RMK A01 T10631067  RH  097%=      5-min Rain = 0
KMUS 091310Z 26004KT M06/M07 A3032 RMK A01 T10641069  RH  097%=      5-min Rain = 0
KMUS 091315Z 26003KT M06/M07 A3032 RMK A01 T10641069  RH  097%=      5-min Rain = 0
KMUS 091320Z 27003KT M06/M07 A3032 RMK A01 T10641069  RH  097%=      5-min Rain = 0
KMUS 091325Z 26003KT M07/M07 A3032 RMK A01 T10651070  RH  097%=      5-min Rain = 0
KMUS 091330Z 25004KT M07/M07 A3032 RMK A01 T10661071  RH  097%=      5-min Rain = 0
KMUS 091335Z 25004KT M07/M07 A3032 RMK A01 T10671072  RH  096%=      5-min Rain = 0
KMUS 091340Z 24005KT M07/M07 A3032 RMK A01 T10671072  RH  097%=      5-min Rain = 0
KMUS 091345Z 25004KT M06/M07 A3033 RMK A01 T10631067  RH  097%=      5-min Rain = 0
KMUS 091350Z 27004KT M06/M07 A3033 RMK A01 T10611065  RH  097%=      5-min Rain = 0
KMUS 091355Z 29004KT M06/M07 A3033 RMK A01 T10611065  RH  097%=      5-min Rain = 0
KMUS 091400Z 29004KT M06/M07 A3034 RMK A01 T10601065  RH  097%=      5-min Rain = 0
KMUS 091405Z 29003KT M06/M06 A3034 RMK A01 T10591063  RH  097%=      5-min Rain = 0
KMUS 091410Z 27002KT M06/M06 A3034 RMK A01 T10571062  RH  097%=      5-min Rain = 0
KMUS 091415Z 25002KT M06/M06 A3034 RMK A01 T10561060  RH  097%=      5-min Rain = 0
KMUS 091420Z 26003KT M05/M06 A3034 RMK A01 T10531058  RH  097%=      5-min Rain = 0
KMUS 091425Z 27003KT M05/M06 A3034 RMK A01 T10511055  RH  097%=      5-min Rain = 0
KMUS 091430Z 26002KT M05/M05 A3035 RMK A01 T10481053  RH  097%=      5-min Rain = 0
KMUS 091435Z 26002KT M05/M05 A3035 RMK A01 T10451049  RH  097%=      5-min Rain = 0
KMUS 091440Z 27001KT M04/M05 A3035 RMK A01 T10411046  RH  097%=      5-min Rain = 0
KMUS 091445Z 26001KT M04/M05 A3035 RMK A01 T10401045  RH  096%=      5-min Rain = 0
KMUS 091450Z 30001KT M04/M04 A3035 RMK A01 T10391044  RH  096%=      5-min Rain = 0
KMUS 091455Z 28001KT M04/M04 A3035 RMK A01 T10351040  RH  097%=      5-min Rain = 0
KMUS 091500Z 25002KT M03/M04 A3035 RMK A01 T10301035  RH  097%=      5-min Rain = 0
KMUS 091505Z 24001KT M03/M03 A3036 RMK A01 T10251030  RH  097%=      5-min Rain = 0
KMUS 091510Z 22001KT M02/M03 A3036 RMK A01 T10201026  RH  096%=      5-min Rain = 0
KMUS 091515Z 26001KT M02/M03 A3036 RMK A01 T10181025  RH  096%=      5-min Rain = 0
KMUS 091520Z 00000KT M01/M02 A3036 RMK A01 T10131021  RH  096%=      5-min Rain = 0
KMUS 091525Z 00000KT M01/M02 A3036 RMK A01 T10091017  RH  095%=      5-min Rain = 0
KMUS 091530Z 25000KT M01/M02 A3036 RMK A01 T10061015  RH  095%=      5-min Rain = 0
KMUS 091535Z 02002KT M01/M02 A3036 RMK A01 T10061016  RH  094%=      5-min Rain = 0
KMUS 091540Z 03002KT M01/M02 A3036 RMK A01 T10051015  RH  094%=      5-min Rain = 0
KMUS 091545Z 05002KT M00/M01 A3037 RMK A01 T10041013  RH  094%=      5-min Rain = 0
KMUS 091550Z 05002KT M00/M01 A3037 RMK A01 T10021012  RH  094%=      5-min Rain = 0
KMUS 091555Z 06002KT 00/M01 A3037 RMK A01 T00031007  RH  094%=      5-min Rain = 0
KMUS 091600Z 04001KT 01/M01 A3037 RMK A01 T00061006  RH  093%=      5-min Rain = 0
KMUS 091605Z 04002KT 01/M01 A3037 RMK A01 T00071007  RH  091%=      5-min Rain = 0
KMUS 091610Z 05002KT 01/M01 A3038 RMK A01 T00091007  RH  091%=      5-min Rain = 0
KMUS 091615Z 04002KT 01/M01 A3038 RMK A01 T00111005  RH  090%=      5-min Rain = 0
KMUS 091620Z 07002KT 01/M00 A3038 RMK A01 T00141004  RH  089%=      5-min Rain = 0
KMUS 091625Z 07002KT 02/M00 A3038 RMK A01 T00181001  RH  088%=      5-min Rain = 0
KMUS 091630Z 09001KT 02/M00 A3038 RMK A01 T00211001  RH  087%=      5-min Rain = 0
KMUS 091635Z 03002KT 02/M00 A3038 RMK A01 T00221002  RH  085%=      5-min Rain = 0
KMUS 091640Z 03002KT 02/M00 A3038 RMK A01 T00221002  RH  085%=      5-min Rain = 0
KMUS 091645Z 07002KT 03/M00 A3038 RMK A01 T00251001  RH  084%=      5-min Rain = 0
KMUS 091650Z 08003KT 03/M00 A3038 RMK A01 T00271001  RH  083%=      5-min Rain = 0
KMUS 091655Z 07001KT 03/00 A3038 RMK A01 T00310001  RH  082%=      5-min Rain = 0
KMUS 091700Z 11001KT 04/00 A3038 RMK A01 T00350003  RH  080%=      5-min Rain = 0
KMUS 091705Z 17001KT 04/00 A3038 RMK A01 T00400004  RH  078%=      5-min Rain = 0
KMUS 091710Z 10002KT 04/00 A3038 RMK A01 T00420000  RH  075%=      5-min Rain = 0
KMUS 091715Z 07002KT 04/M00 A3038 RMK A01 T00401002  RH  075%=      5-min Rain = 0
KMUS 091720Z 03002KT 04/00 A3038 RMK A01 T004100-0  RH  075%=      5-min Rain = 0
KMUS 091725Z 32001KT 04/00 A3038 RMK A01 T00420000  RH  075%=      5-min Rain = 0
KMUS 091730Z 11002KT 04/M00 A3038 RMK A01 T00441002  RH  073%=      5-min Rain = 0
KMUS 091735Z 15001KT 05/M00 A3037 RMK A01 T00451001  RH  073%=      5-min Rain = 0
KMUS 091740Z 12002KT 05/00 A3037 RMK A01 T00510000  RH  070%=      5-min Rain = 0
KMUS 091745Z 20001KT 05/00 A3037 RMK A01 T005400-0  RH  069%=      5-min Rain = 0
KMUS 091750Z 12002KT 05/M01 A3037 RMK A01 T00541008  RH  065%=      5-min Rain = 0
KMUS 091755Z 10002KT 06/M01 A3037 RMK A01 T00551008  RH  064%=      5-min Rain = 0
KMUS 091800Z 07002KT 06/M01 A3037 RMK A01 T00561007  RH  064%=      5-min Rain = 0
KMUS 091805Z 06002KT 06/M01 A3037 RMK A01 T00571009  RH  063%=      5-min Rain = 0
KMUS 091810Z 04003KT 06/M01 A3036 RMK A01 T00581014  RH  060%=      5-min Rain = 0
KMUS 091815Z 05004KT 06/M02 A3036 RMK A01 T00601015  RH  059%=      5-min Rain = 0
KMUS 091820Z 05004KT 06/M02 A3036 RMK A01 T00611022  RH  056%=      5-min Rain = 0
KMUS 091825Z 04004KT 06/M02 A3035 RMK A01 T00601024  RH  055%=      5-min Rain = 0
KMUS 091830Z 03005KT 06/M02 A3035 RMK A01 T00611018  RH  057%=      5-min Rain = 0
KMUS 091835Z 04004KT 06/M02 A3034 RMK A01 T00631015  RH  058%=      5-min Rain = 0
KMUS 091840Z 05002KT 06/M01 A3034 RMK A01 T00621013  RH  059%=      5-min Rain = 0
KMUS 091845Z 09003KT 06/M01 A3034 RMK A01 T00631012  RH  060%=      5-min Rain = 0
KMUS 091850Z 10002KT 07/M02 A3034 RMK A01 T00661015  RH  057%=      5-min Rain = 0
KMUS 091855Z 04004KT 07/M02 A3034 RMK A01 T00691019  RH  054%=      5-min Rain = 0
KMUS 091900Z 05004KT 07/M03 A3034 RMK A01 T00671025  RH  052%=      5-min Rain = 0
KMUS 091905Z 07004KT 07/M02 A3034 RMK A01 T00681022  RH  053%=      5-min Rain = 0
KMUS 091910Z 07003KT 07/M02 A3033 RMK A01 T00701022  RH  052%=      5-min Rain = 0
KMUS 091915Z 08002KT 07/M02 A3033 RMK A01 T00711022  RH  052%=      5-min Rain = 0
KMUS 091920Z 08002KT 07/M02 A3033 RMK A01 T00731016  RH  054%=      5-min Rain = 0
KMUS 091925Z 06003KT 07/M01 A3033 RMK A01 T00741013  RH  055%=      5-min Rain = 0
KMUS 091930Z 10001KT 08/M01 A3033 RMK A01 T00751011  RH  055%=      5-min Rain = 0
KMUS 091935Z 07002KT 07/M01 A3033 RMK A01 T00741011  RH  056%=      5-min Rain = 0
KMUS 091940Z 07002KT 08/M01 A3033 RMK A01 T00771007  RH  056%=      5-min Rain = 0
KMUS 091945Z 07003KT 08/M00 A3033 RMK A01 T00781004  RH  057%=      5-min Rain = 0
KMUS 091950Z 09004KT 08/M00 A3033 RMK A01 T00751004  RH  058%=      5-min Rain = 0
KMUS 091955Z 13003KT 08/M01 A3032 RMK A01 T00761005  RH  057%=      5-min Rain = 0
KMUS 092000Z 06003KT 08/M00 A3032 RMK A01 T00771002  RH  058%=      5-min Rain = 0
KMUS 092005Z 01004KT 08/M00 A3032 RMK A01 T00811002  RH  057%=      5-min Rain = 0
KMUS 092010Z 35004KT 08/M01 A3032 RMK A01 T00781006  RH  056%=      5-min Rain = 0
KMUS 092015Z 36003KT 08/M01 A3032 RMK A01 T00791005  RH  056%=      5-min Rain = 0
KMUS 092020Z 04003KT 08/M01 A3032 RMK A01 T00791005  RH  056%=      5-min Rain = 0
KMUS 092025Z 07002KT 08/M00 A3032 RMK A01 T00791004  RH  056%=      5-min Rain = 0
KMUS 092030Z 05003KT 08/M00 A3032 RMK A01 T00831003  RH  055%=      5-min Rain = 0
KMUS 092035Z 08004KT 08/M00 A3032 RMK A01 T00821003  RH  055%=      5-min Rain = 0
KMUS 092040Z 10003KT 08/M00 A3032 RMK A01 T00831004  RH  055%=      5-min Rain = 0
KMUS 092045Z 04003KT 08/M01 A3032 RMK A01 T00831006  RH  054%=      5-min Rain = 0
KMUS 092050Z 01004KT 08/M00 A3031 RMK A01 T00841004  RH  055%=      5-min Rain = 0
KMUS 092055Z 35007KT 09/M00 A3031 RMK A01 T00881002  RH  054%=      5-min Rain = 0
KMUS 092100Z 35006KT 09/M00 A3031 RMK A01 T00901004  RH  053%=      5-min Rain = 0
KMUS 092105Z 33006KT 09/M01 A3032 RMK A01 T00861007  RH  052%=      5-min Rain = 0
KMUS 092110Z 34004KT 09/M01 A3031 RMK A01 T00851007  RH  053%=      5-min Rain = 0
KMUS 092115Z 33001KT 09/M01 A3031 RMK A01 T00871007  RH  052%=      5-min Rain = 0
KMUS 092120Z 35004KT 09/M01 A3031 RMK A01 T00891005  RH  052%=      5-min Rain = 0
KMUS 092125Z 34003KT 09/M01 A3031 RMK A01 T00901005  RH  052%=      5-min Rain = 0
KMUS 092130Z 03003KT 09/M01 A3031 RMK A01 T00911006  RH  051%=      5-min Rain = 0
KMUS 092135Z 28003KT 09/M01 A3031 RMK A01 T00921006  RH  051%=      5-min Rain = 0
KMUS 092140Z 27004KT 09/M01 A3031 RMK A01 T00941007  RH  050%=      5-min Rain = 0
KMUS 092145Z 26003KT 09/M01 A3031 RMK A01 T00921009  RH  050%=      5-min Rain = 0
KMUS 092150Z 18002KT 09/M01 A303 RMK A01 T00941007  RH  050%=      5-min Rain = 0
KMUS 092155Z 26003KT 10/M01 A303 RMK A01 T00951008  RH  049%=      5-min Rain = 0
KMUS 092200Z 30004KT 09/M01 A303 RMK A01 T00941009  RH  049%=      5-min Rain = 0
KMUS 092205Z 32002KT 09/M01 A303 RMK A01 T00931012  RH  048%=      5-min Rain = 0
KMUS 092210Z 30004KT 09/M01 A303 RMK A01 T00941010  RH  049%=      5-min Rain = 0
KMUS 092215Z 32003KT 09/M01 A303 RMK A01 T00941011  RH  048%=      5-min Rain = 0
KMUS 092220Z 32002KT 09/M01 A3031 RMK A01 T00931010  RH  049%=      5-min Rain = 0
KMUS 092225Z 36002KT 09/M01 A3031 RMK A01 T00941010  RH  049%=      5-min Rain = 0
KMUS 092230Z 01002KT 09/M01 A3031 RMK A01 T00931009  RH  049%=      5-min Rain = 0
KMUS 092235Z 36001KT 09/M01 A3031 RMK A01 T00921010  RH  049%=      5-min Rain = 0
KMUS 092240Z 34002KT 09/M01 A3031 RMK A01 T00931011  RH  049%=      5-min Rain = 0
KMUS 092245Z 33002KT 09/M01 A3031 RMK A01 T00911012  RH  049%=      5-min Rain = 0
KMUS 092250Z 34001KT 09/M01 A3031 RMK A01 T00911012  RH  049%=      5-min Rain = 0
KMUS 092255Z 36003KT 09/M01 A3031 RMK A01 T00911012  RH  049%=      5-min Rain = 0
KMUS 092300Z 35003KT 09/M01 A3031 RMK A01 T00891011  RH  050%=      5-min Rain = 0
KMUS 092305Z 35002KT 09/M01 A3031 RMK A01 T00871012  RH  050%=      5-min Rain = 0
KMUS 092310Z 00001KT 09/M01 A3032 RMK A01 T00861014  RH  050%=      5-min Rain = 0
KMUS 092315Z 00000KT 09/M01 A3031 RMK A01 T00871013  RH  050%=      5-min Rain = 0
KMUS 092320Z 00000KT 09/M01 A3031 RMK A01 T00901012  RH  049%=      5-min Rain = 0
KMUS 092325Z 00000KT 09/M01 A3031 RMK A01 T00911013  RH  049%=      5-min Rain = 0
KMUS 092330Z 18005KT 08/M01 A3031 RMK A01 T00801012  RH  053%=      5-min Rain = 0
KMUS 092335Z 18006KT 06/M01 A3031 RMK A01 T00621005  RH  063%=      5-min Rain = 0
KMUS 092340Z 18007KT 05/M00 A3031 RMK A01 T00541003  RH  068%=      5-min Rain = 0
KMUS 092345Z 18007KT 05/M00 A3031 RMK A01 T00491002  RH  071%=      5-min Rain = 0
KMUS 092350Z 17007KT 04/M01 A3031 RMK A01 T00431005  RH  071%=      5-min Rain = 0
KMUS 092355Z 17006KT 04/M01 A3031 RMK A01 T00381008  RH  073%=      5-min Rain = 0
KMUS 100000Z 17005KT 03/M01 A3032 RMK A01 T00331009  RH  075%=      5-min Rain = 0
KMUS 100005Z 16006KT 03/M01 A3032 RMK A01 T00271012  RH  076%=      5-min Rain = 0
KMUS 100010Z 17007KT 02/M01 A3032 RMK A01 T00201013  RH  079%=      5-min Rain = 0
KMUS 100015Z 19006KT 02/M01 A3032 RMK A01 T00181011  RH  081%=      5-min Rain = 0
KMUS 100020Z 19005KT 02/M01 A3033 RMK A01 T00171011  RH  082%=      5-min Rain = 0
KMUS 100025Z 19005KT 01/M01 A3033 RMK A01 T00141012  RH  083%=      5-min Rain = 0
KMUS 100030Z 19005KT 01/M01 A3033 RMK A01 T00121013  RH  084%=      5-min Rain = 0
KMUS 100035Z 19005KT 01/M02 A3033 RMK A01 T00091015  RH  085%=      5-min Rain = 0
KMUS 100040Z 19004KT 01/M01 A3033 RMK A01 T00071014  RH  086%=      5-min Rain = 0
KMUS 100045Z 20004KT 01/M02 A3033 RMK A01 T00051016  RH  087%=      5-min Rain = 0
KMUS 100050Z 19002KT 00/M02 A3033 RMK A01 T00031017  RH  087%=      5-min Rain = 0
KMUS 100055Z 21000KT 00/M02 A3034 RMK A01 T00041015  RH  088%=      5-min Rain = 0
KMUS 100100Z 21001KT 01/M01 A3034 RMK A01 T00051013  RH  088%=      5-min Rain = 0
KMUS 100105Z 21002KT 00/M02 A3034 RMK A01 T00041016  RH  088%=      5-min Rain = 0
KMUS 100110Z 22002KT M00/M02 A3034 RMK A01 T10011020  RH  088%=      5-min Rain = 0
KMUS 100115Z 26001KT M00/M02 A3034 RMK A01 T10021020  RH  088%=      5-min Rain = 0
KMUS 100120Z 28002KT M00/M02 A3035 RMK A01 T10031020  RH  089%=      5-min Rain = 0
KMUS 100125Z 29001KT M01/M03 A3035 RMK A01 T10061025  RH  088%=      5-min Rain = 0
KMUS 100130Z 29000KT M01/M03 A3035 RMK A01 T10101028  RH  088%=      5-min Rain = 0
KMUS 100135Z 06001KT M02/M03 A3035 RMK A01 T10161034  RH  088%=      5-min Rain = 0
KMUS 100140Z 03001KT M02/M04 A3036 RMK A01 T10201036  RH  089%=      5-min Rain = 0
KMUS 100145Z 03002KT M02/M03 A3036 RMK A01 T10201033  RH  091%=      5-min Rain = 0
KMUS 100150Z 00002KT M02/M03 A3037 RMK A01 T10171030  RH  092%=      5-min Rain = 0
KMUS 100155Z 35002KT M02/M03 A3037 RMK A01 T10181030  RH  092%=      5-min Rain = 0
KMUS 100200Z 34003KT M02/M03 A3037 RMK A01 T10201032  RH  092%=      5-min Rain = 0
KMUS 100205Z 35003KT M02/M03 A3037 RMK A01 T10211032  RH  092%=      5-min Rain = 0
KMUS 100210Z 35003KT M02/M03 A3037 RMK A01 T10221033  RH  093%=      5-min Rain = 0
KMUS 100215Z 35004KT M02/M04 A3037 RMK A01 T10241035  RH  093%=      5-min Rain = 0
KMUS 100220Z 35003KT M03/M04 A3037 RMK A01 T10271038  RH  093%=      5-min Rain = 0
KMUS 100225Z 35003KT M03/M04 A3037 RMK A01 T10281038  RH  094%=      5-min Rain = 0
KMUS 100230Z 35003KT M03/M04 A3037 RMK A01 T10271035  RH  094%=      5-min Rain = 0
KMUS 100235Z 35003KT M03/M04 A3037 RMK A01 T10261035  RH  094%=      5-min Rain = 0
KMUS 100240Z 35002KT M03/M04 A3038 RMK A01 T10271036  RH  094%=      5-min Rain = 0
KMUS 100245Z 35000KT M03/M04 A3037 RMK A01 T10291038  RH  094%=      5-min Rain = 0
KMUS 100250Z 00000KT M03/M04 A3037 RMK A01 T10321040  RH  094%=      5-min Rain = 0
KMUS 100255Z 26001KT M04/M04 A3037 RMK A01 T10351043  RH  094%=      5-min Rain = 0
KMUS 100300Z 25002KT M04/M04 A3038 RMK A01 T10361043  RH  095%=      5-min Rain = 0
KMUS 100305Z 25003KT M04/M04 A3038 RMK A01 T10351042  RH  095%=      5-min Rain = 0
KMUS 100310Z 25004KT M04/M04 A3038 RMK A01 T10351042  RH  096%=      5-min Rain = 0
KMUS 100315Z 26004KT M04/M04 A3038 RMK A01 T10371043  RH  096%=      5-min Rain = 0
KMUS 100320Z 26004KT M04/M04 A3038 RMK A01 T10371044  RH  096%=      5-min Rain = 0
KMUS 100325Z 26004KT M04/M04 A3038 RMK A01 T10361042  RH  096%=      5-min Rain = 0
KMUS 100330Z 25004KT M03/M04 A3038 RMK A01 T10341040  RH  097%=      5-min Rain = 0
KMUS 100335Z 25004KT M04/M04 A3038 RMK A01 T10351040  RH  096%=      5-min Rain = 0
KMUS 100340Z 27005KT M04/M04 A3038 RMK A01 T10351040  RH  097%=      5-min Rain = 0
KMUS 100345Z 27006KT M04/M04 A3038 RMK A01 T10361041  RH  096%=      5-min Rain = 0
KMUS 100350Z 26006KT M04/M04 A3038 RMK A01 T10381044  RH  096%=      5-min Rain = 0
KMUS 100355Z 26006KT M04/M04 A3038 RMK A01 T10371041  RH  097%=      5-min Rain = 0
KMUS 100400Z 26006KT M03/M04 A3038 RMK A01 T10321036  RH  098%=      5-min Rain = 0
KMUS 100405Z 25006KT M03/M04 A3038 RMK A01 T10311036  RH  097%=      5-min Rain = 0
KMUS 100410Z 25006KT M03/M04 A3038 RMK A01 T10321037  RH  097%=      5-min Rain = 0
KMUS 100415Z 26006KT M03/M04 A3038 RMK A01 T10331038  RH  097%=      5-min Rain = 0
KMUS 100420Z 25007KT M03/M04 A3038 RMK A01 T10341039  RH  097%=      5-min Rain = 0
KMUS 100425Z 25007KT M04/M04 A3038 RMK A01 T10351040  RH  097%=      5-min Rain = 0
KMUS 100430Z 25006KT M03/M04 A3038 RMK A01 T10331037  RH  097%=      5-min Rain = 0
KMUS 100435Z 26004KT M03/M04 A3038 RMK A01 T10321037  RH  097%=      5-min Rain = 0
KMUS 100440Z 27002KT M03/M04 A3038 RMK A01 T10331038  RH  097%=      5-min Rain = 0
KMUS 100445Z 26004KT M03/M04 A3038 RMK A01 T10341040  RH  097%=      5-min Rain = 0
KMUS 100450Z 26005KT M04/M04 A3038 RMK A01 T10371042  RH  096%=      5-min Rain = 0
KMUS 100455Z 27004KT M04/M04 A3038 RMK A01 T10381043  RH  097%=      5-min Rain = 0
KMUS 100500Z 27004KT M04/M04 A3038 RMK A01 T10381043  RH  097%=      5-min Rain = 0
KMUS 100505Z 26004KT M04/M05 A3038 RMK A01 T10401045  RH  097%=      5-min Rain = 0
KMUS 100510Z 26004KT M04/M05 A3038 RMK A01 T10421047  RH  097%=      5-min Rain = 0
KMUS 100515Z 26005KT M04/M05 A3038 RMK A01 T10421047  RH  097%=      5-min Rain = 0
KMUS 100520Z 26004KT M04/M05 A3038 RMK A01 T10421047  RH  097%=      5-min Rain = 0
KMUS 100525Z 26004KT M04/M05 A3038 RMK A01 T10421047  RH  097%=      5-min Rain = 0
KMUS 100530Z 27004KT M04/M05 A3038 RMK A01 T10441049  RH  097%=      5-min Rain = 0
KMUS 100535Z 27004KT M05/M05 A3038 RMK A01 T10451050  RH  097%=      5-min Rain = 0
KMUS 100540Z 27005KT M05/M05 A3038 RMK A01 T10471051  RH  097%=      5-min Rain = 0
KMUS 100545Z 28005KT M05/M05 A3038 RMK A01 T10471052  RH  097%=      5-min Rain = 0
KMUS 100550Z 27004KT M05/M05 A3038 RMK A01 T10481052  RH  097%=      5-min Rain = 0
KMUS 100555Z 27005KT M05/M05 A3038 RMK A01 T10491053  RH  097%=      5-min Rain = 0

Page generated in 0.0086 seconds.